PILOTS ONLINE: 144    ATC ONLINE: 9

KNXP

Twentynine Palms (Self) Airport

Location

City Twentynine Palms
Country  United States
Latitude 34° 17' 46" N
Longitude 116° 9' 43" W
Elevation 2051 ft
Type Medium Airport

Map

Weather

METAR
2014/10/21 04:56
KNXP 210456Z AUTO 11003KT 10SM CLR 22/05 A2994 RMK AO2 SLP106 T02220050 
TAF
2014/10/21 03:21
TAF KNXP 2103/2203 22009KT 9999 SCT200 QNH2991INS 
      BECMG 2106/2108 30007KT 9999 BKN200 QNH2982INS T17/2112Z T29/2121Z

Runways

10/28 8015 ft / 150 ft

Outbound flights

Callsign Flying to Pilot ATD/STD ETA Aircraft

Inbound flights

Callsign Flying from Pilot ATD ETA Aircraft